KCSQ

Creston Municipal Airport

Creston, Iowa, USA
METAR KCSQ 161535Z AUTO 30008KT 10SM OVC012 03/01 A3010 RMK AO2
Observed Flight Rules
Nov-16 @ 15:35 UTC (30 minutes ago) Marginal Visual Flight Rules
Wind Visibility Clouds
300° at 8 knots 10 miles
  • Overcast at 1,200' AGL
Temperatures Readings
Current 3°C / 37°F
Dewpoint 1°C / 34°F
Humidity 87%
Altimeter 30.1" Hg
Pressure 1019 hPa
Elevation 394
METAR KCSQ 161535Z AUTO 30008KT 10SM OVC012 03/01 A3010 RMK AO2
Observed Flight Rules
Nov-16 @ 15:35 UTC
(30 minutes ago)
MVFR
Wind Visibility
300° at 8 knots 10 miles
Clouds
  • Overcast at 1,200' AGL
Temperature Dewpoint
3°C / 37°F 1°C / 34°F
Humidity Altimeter Pressure
87% 30.1" Hg 1019 hPa